sensor_id;sensor_type;location;lat;lon;timestamp;temperature;humidity
39777;DHT22;25453;48.162;14.510;2023-04-26T00:01:02;11.00;73.90
39777;DHT22;25453;48.162;14.510;2023-04-26T00:03:32;11.00;74.10
39777;DHT22;25453;48.162;14.510;2023-04-26T00:05:59;11.00;74.20
39777;DHT22;25453;48.162;14.510;2023-04-26T00:08:31;11.00;74.20
39777;DHT22;25453;48.162;14.510;2023-04-26T00:10:59;11.10;74.10
39777;DHT22;25453;48.162;14.510;2023-04-26T00:13:26;11.10;74.10
39777;DHT22;25453;48.162;14.510;2023-04-26T00:15:53;11.10;74.00
39777;DHT22;25453;48.162;14.510;2023-04-26T00:18:21;11.10;73.90
39777;DHT22;25453;48.162;14.510;2023-04-26T00:20:48;11.10;74.00
39777;DHT22;25453;48.162;14.510;2023-04-26T00:23:15;11.10;73.90
39777;DHT22;25453;48.162;14.510;2023-04-26T00:25:43;11.10;73.90
39777;DHT22;25453;48.162;14.510;2023-04-26T00:28:10;11.10;73.90
39777;DHT22;25453;48.162;14.510;2023-04-26T00:30:40;11.10;73.70
39777;DHT22;25453;48.162;14.510;2023-04-26T00:33:13;11.10;73.60
39777;DHT22;25453;48.162;14.510;2023-04-26T00:35:41;11.10;73.70
39777;DHT22;25453;48.162;14.510;2023-04-26T00:38:08;11.10;73.80
39777;DHT22;25453;48.162;14.510;2023-04-26T00:40:38;11.10;73.80
39777;DHT22;25453;48.162;14.510;2023-04-26T00:43:09;11.10;73.70
39777;DHT22;25453;48.162;14.510;2023-04-26T00:45:36;11.10;73.80
39777;DHT22;25453;48.162;14.510;2023-04-26T00:48:04;11.10;73.70
39777;DHT22;25453;48.162;14.510;2023-04-26T00:50:32;11.10;73.70
39777;DHT22;25453;48.162;14.510;2023-04-26T00:52:59;11.10;73.70
39777;DHT22;25453;48.162;14.510;2023-04-26T00:55:28;11.10;73.60
39777;DHT22;25453;48.162;14.510;2023-04-26T00:57:55;11.10;73.60
39777;DHT22;25453;48.162;14.510;2023-04-26T01:00:23;11.10;73.60
39777;DHT22;25453;48.162;14.510;2023-04-26T01:02:51;11.10;73.70
39777;DHT22;25453;48.162;14.510;2023-04-26T01:05:19;11.10;73.70
39777;DHT22;25453;48.162;14.510;2023-04-26T01:07:46;11.10;73.70
39777;DHT22;25453;48.162;14.510;2023-04-26T01:10:14;11.10;73.70
39777;DHT22;25453;48.162;14.510;2023-04-26T01:12:42;11.10;73.40
39777;DHT22;25453;48.162;14.510;2023-04-26T01:15:09;11.10;73.40
39777;DHT22;25453;48.162;14.510;2023-04-26T01:17:37;11.10;73.40
39777;DHT22;25453;48.162;14.510;2023-04-26T01:20:05;11.10;73.40
39777;DHT22;25453;48.162;14.510;2023-04-26T01:22:35;11.10;73.40
39777;DHT22;25453;48.162;14.510;2023-04-26T01:25:04;11.10;73.40
39777;DHT22;25453;48.162;14.510;2023-04-26T01:27:39;11.10;73.30
39777;DHT22;25453;48.162;14.510;2023-04-26T01:30:09;11.10;73.20
39777;DHT22;25453;48.162;14.510;2023-04-26T01:32:38;11.10;73.30
39777;DHT22;25453;48.162;14.510;2023-04-26T01:35:06;11.10;73.30
39777;DHT22;25453;48.162;14.510;2023-04-26T01:37:33;11.10;73.30
39777;DHT22;25453;48.162;14.510;2023-04-26T01:40:00;11.10;73.20
39777;DHT22;25453;48.162;14.510;2023-04-26T01:42:27;11.10;73.10
39777;DHT22;25453;48.162;14.510;2023-04-26T01:44:54;11.10;73.20
39777;DHT22;25453;48.162;14.510;2023-04-26T01:47:22;11.10;73.30
39777;DHT22;25453;48.162;14.510;2023-04-26T01:49:49;11.10;73.30
39777;DHT22;25453;48.162;14.510;2023-04-26T01:52:17;11.10;73.10
39777;DHT22;25453;48.162;14.510;2023-04-26T01:54:45;11.10;73.10
39777;DHT22;25453;48.162;14.510;2023-04-26T01:57:12;11.10;73.20
39777;DHT22;25453;48.162;14.510;2023-04-26T01:59:40;11.10;73.20
39777;DHT22;25453;48.162;14.510;2023-04-26T02:02:08;11.10;73.10
39777;DHT22;25453;48.162;14.510;2023-04-26T02:04:35;11.10;73.00
39777;DHT22;25453;48.162;14.510;2023-04-26T02:07:04;11.10;73.00
39777;DHT22;25453;48.162;14.510;2023-04-26T02:09:32;11.10;73.00
39777;DHT22;25453;48.162;14.510;2023-04-26T02:11:59;11.00;73.00
39777;DHT22;25453;48.162;14.510;2023-04-26T02:14:26;11.00;73.10
39777;DHT22;25453;48.162;14.510;2023-04-26T02:16:53;11.00;73.20
39777;DHT22;25453;48.162;14.510;2023-04-26T02:19:20;11.00;73.20
39777;DHT22;25453;48.162;14.510;2023-04-26T02:21:52;11.00;73.20
39777;DHT22;25453;48.162;14.510;2023-04-26T02:24:19;11.00;73.30
39777;DHT22;25453;48.162;14.510;2023-04-26T02:26:48;11.00;73.30
39777;DHT22;25453;48.162;14.510;2023-04-26T02:29:15;11.10;73.30
39777;DHT22;25453;48.162;14.510;2023-04-26T02:31:42;11.10;73.40
39777;DHT22;25453;48.162;14.510;2023-04-26T02:34:10;11.10;73.40
39777;DHT22;25453;48.162;14.510;2023-04-26T02:36:38;11.10;73.30
39777;DHT22;25453;48.162;14.510;2023-04-26T02:39:05;11.10;73.20
39777;DHT22;25453;48.162;14.510;2023-04-26T02:41:33;11.10;73.20
39777;DHT22;25453;48.162;14.510;2023-04-26T02:44:00;11.10;73.10
39777;DHT22;25453;48.162;14.510;2023-04-26T02:46:28;11.10;73.00
39777;DHT22;25453;48.162;14.510;2023-04-26T02:48:55;11.10;73.10
39777;DHT22;25453;48.162;14.510;2023-04-26T02:51:24;11.10;73.20
39777;DHT22;25453;48.162;14.510;2023-04-26T02:53:52;11.10;73.30
39777;DHT22;25453;48.162;14.510;2023-04-26T02:56:20;11.10;73.30
39777;DHT22;25453;48.162;14.510;2023-04-26T02:58:47;11.10;73.30
39777;DHT22;25453;48.162;14.510;2023-04-26T03:01:15;11.10;73.20
39777;DHT22;25453;48.162;14.510;2023-04-26T03:03:44;11.10;73.30
39777;DHT22;25453;48.162;14.510;2023-04-26T03:06:12;11.10;73.30
39777;DHT22;25453;48.162;14.510;2023-04-26T03:08:39;11.10;73.30
39777;DHT22;25453;48.162;14.510;2023-04-26T03:11:08;11.10;73.30
39777;DHT22;25453;48.162;14.510;2023-04-26T03:13:37;11.10;73.40
39777;DHT22;25453;48.162;14.510;2023-04-26T03:16:05;11.20;73.40
39777;DHT22;25453;48.162;14.510;2023-04-26T03:18:33;11.20;73.40
39777;DHT22;25453;48.162;14.510;2023-04-26T03:21:00;11.20;73.30
39777;DHT22;25453;48.162;14.510;2023-04-26T03:23:27;11.20;73.30
39777;DHT22;25453;48.162;14.510;2023-04-26T03:25:55;11.20;73.20
39777;DHT22;25453;48.162;14.510;2023-04-26T03:28:22;11.10;73.10
39777;DHT22;25453;48.162;14.510;2023-04-26T03:30:49;11.10;73.10
39777;DHT22;25453;48.162;14.510;2023-04-26T03:33:19;11.10;73.20
39777;DHT22;25453;48.162;14.510;2023-04-26T03:35:46;11.10;73.10
39777;DHT22;25453;48.162;14.510;2023-04-26T03:38:14;11.10;73.10
39777;DHT22;25453;48.162;14.510;2023-04-26T03:40:41;11.10;73.10
39777;DHT22;25453;48.162;14.510;2023-04-26T03:43:09;11.10;73.20
39777;DHT22;25453;48.162;14.510;2023-04-26T03:45:40;11.10;73.10
39777;DHT22;25453;48.162;14.510;2023-04-26T03:48:10;11.00;72.70
39777;DHT22;25453;48.162;14.510;2023-04-26T03:50:38;11.00;72.80
39777;DHT22;25453;48.162;14.510;2023-04-26T03:53:05;11.00;73.00
39777;DHT22;25453;48.162;14.510;2023-04-26T03:55:33;11.00;73.00
39777;DHT22;25453;48.162;14.510;2023-04-26T03:58:03;10.90;72.90
39777;DHT22;25453;48.162;14.510;2023-04-26T04:00:35;10.90;72.80
39777;DHT22;25453;48.162;14.510;2023-04-26T04:03:03;10.90;72.70
39777;DHT22;25453;48.162;14.510;2023-04-26T04:05:31;10.90;72.70
39777;DHT22;25453;48.162;14.510;2023-04-26T04:07:58;10.80;72.90
39777;DHT22;25453;48.162;14.510;2023-04-26T04:10:26;10.90;72.90
39777;DHT22;25453;48.162;14.510;2023-04-26T04:12:53;10.80;72.80
39777;DHT22;25453;48.162;14.510;2023-04-26T04:15:21;10.80;72.80
39777;DHT22;25453;48.162;14.510;2023-04-26T04:17:48;10.80;73.00
39777;DHT22;25453;48.162;14.510;2023-04-26T04:20:15;10.80;73.10
39777;DHT22;25453;48.162;14.510;2023-04-26T04:22:43;10.90;73.00
39777;DHT22;25453;48.162;14.510;2023-04-26T04:25:10;10.80;72.80
39777;DHT22;25453;48.162;14.510;2023-04-26T04:27:38;10.90;72.90
39777;DHT22;25453;48.162;14.510;2023-04-26T04:30:05;10.80;72.70
39777;DHT22;25453;48.162;14.510;2023-04-26T04:32:35;10.90;72.90
39777;DHT22;25453;48.162;14.510;2023-04-26T04:35:04;10.80;72.70
39777;DHT22;25453;48.162;14.510;2023-04-26T04:37:31;10.80;72.50
39777;DHT22;25453;48.162;14.510;2023-04-26T04:40:00;10.80;72.50
39777;DHT22;25453;48.162;14.510;2023-04-26T04:42:27;10.70;72.50
39777;DHT22;25453;48.162;14.510;2023-04-26T04:44:54;10.80;72.50
39777;DHT22;25453;48.162;14.510;2023-04-26T04:47:25;10.70;72.30
39777;DHT22;25453;48.162;14.510;2023-04-26T04:49:52;10.70;72.40
39777;DHT22;25453;48.162;14.510;2023-04-26T04:52:20;10.80;72.30
39777;DHT22;25453;48.162;14.510;2023-04-26T04:54:48;10.70;72.10
39777;DHT22;25453;48.162;14.510;2023-04-26T04:57:16;10.70;72.10
39777;DHT22;25453;48.162;14.510;2023-04-26T04:59:44;10.70;72.10
39777;DHT22;25453;48.162;14.510;2023-04-26T05:02:12;10.70;72.20
39777;DHT22;25453;48.162;14.510;2023-04-26T05:04:40;10.70;72.10
39777;DHT22;25453;48.162;14.510;2023-04-26T05:07:13;10.80;72.00
39777;DHT22;25453;48.162;14.510;2023-04-26T05:09:42;10.80;72.00
39777;DHT22;25453;48.162;14.510;2023-04-26T05:12:09;10.80;72.10
39777;DHT22;25453;48.162;14.510;2023-04-26T05:14:38;10.80;72.10
39777;DHT22;25453;48.162;14.510;2023-04-26T05:17:06;10.90;71.90
39777;DHT22;25453;48.162;14.510;2023-04-26T05:19:33;10.90;71.90
39777;DHT22;25453;48.162;14.510;2023-04-26T05:22:01;10.90;71.80
39777;DHT22;25453;48.162;14.510;2023-04-26T05:24:28;10.90;71.60
39777;DHT22;25453;48.162;14.510;2023-04-26T05:26:57;10.90;71.60
39777;DHT22;25453;48.162;14.510;2023-04-26T05:29:28;10.90;71.60
39777;DHT22;25453;48.162;14.510;2023-04-26T05:31:56;10.90;71.50
39777;DHT22;25453;48.162;14.510;2023-04-26T05:34:23;10.90;71.50
39777;DHT22;25453;48.162;14.510;2023-04-26T05:36:52;11.00;71.50
39777;DHT22;25453;48.162;14.510;2023-04-26T05:39:20;11.00;71.50
39777;DHT22;25453;48.162;14.510;2023-04-26T05:41:47;11.00;71.50
39777;DHT22;25453;48.162;14.510;2023-04-26T05:44:15;11.00;71.40
39777;DHT22;25453;48.162;14.510;2023-04-26T05:46:42;11.00;71.50
39777;DHT22;25453;48.162;14.510;2023-04-26T05:49:10;11.10;71.50
39777;DHT22;25453;48.162;14.510;2023-04-26T05:51:37;11.10;71.40
39777;DHT22;25453;48.162;14.510;2023-04-26T05:54:04;11.10;71.30
39777;DHT22;25453;48.162;14.510;2023-04-26T05:56:31;11.10;71.30
39777;DHT22;25453;48.162;14.510;2023-04-26T05:58:59;11.10;71.50
39777;DHT22;25453;48.162;14.510;2023-04-26T06:01:26;11.20;71.50
39777;DHT22;25453;48.162;14.510;2023-04-26T06:03:53;11.20;71.30
39777;DHT22;25453;48.162;14.510;2023-04-26T06:06:24;11.20;71.20
39777;DHT22;25453;48.162;14.510;2023-04-26T06:08:54;11.30;71.10
39777;DHT22;25453;48.162;14.510;2023-04-26T06:11:21;11.30;70.90
39777;DHT22;25453;48.162;14.510;2023-04-26T06:13:48;11.30;70.90
39777;DHT22;25453;48.162;14.510;2023-04-26T06:16:16;11.30;70.70
39777;DHT22;25453;48.162;14.510;2023-04-26T06:18:44;11.20;70.70
39777;DHT22;25453;48.162;14.510;2023-04-26T06:21:12;11.20;70.90
39777;DHT22;25453;48.162;14.510;2023-04-26T06:23:39;11.30;70.90
39777;DHT22;25453;48.162;14.510;2023-04-26T06:26:07;11.30;70.90
39777;DHT22;25453;48.162;14.510;2023-04-26T06:28:34;11.30;70.90
39777;DHT22;25453;48.162;14.510;2023-04-26T06:31:03;11.30;70.70
39777;DHT22;25453;48.162;14.510;2023-04-26T06:33:30;11.40;70.70
39777;DHT22;25453;48.162;14.510;2023-04-26T06:35:58;11.40;70.70
39777;DHT22;25453;48.162;14.510;2023-04-26T06:38:25;11.40;70.70
39777;DHT22;25453;48.162;14.510;2023-04-26T06:40:52;11.40;70.70
39777;DHT22;25453;48.162;14.510;2023-04-26T06:43:19;11.40;70.50
39777;DHT22;25453;48.162;14.510;2023-04-26T06:45:47;11.50;70.50
39777;DHT22;25453;48.162;14.510;2023-04-26T06:48:14;11.50;70.50
39777;DHT22;25453;48.162;14.510;2023-04-26T06:50:41;11.50;70.30
39777;DHT22;25453;48.162;14.510;2023-04-26T06:53:09;11.50;70.10
39777;DHT22;25453;48.162;14.510;2023-04-26T06:55:36;11.50;70.10
39777;DHT22;25453;48.162;14.510;2023-04-26T06:58:04;11.50;70.20
39777;DHT22;25453;48.162;14.510;2023-04-26T07:00:31;11.50;70.10
39777;DHT22;25453;48.162;14.510;2023-04-26T07:02:59;11.50;69.90
39777;DHT22;25453;48.162;14.510;2023-04-26T07:05:26;11.50;69.70
39777;DHT22;25453;48.162;14.510;2023-04-26T07:07:53;11.50;69.70
39777;DHT22;25453;48.162;14.510;2023-04-26T07:10:20;11.50;69.70
39777;DHT22;25453;48.162;14.510;2023-04-26T07:12:47;11.60;69.40
39777;DHT22;25453;48.162;14.510;2023-04-26T07:15:14;11.60;69.60
39777;DHT22;25453;48.162;14.510;2023-04-26T07:17:42;11.60;69.70
39777;DHT22;25453;48.162;14.510;2023-04-26T07:20:09;11.70;69.40
39777;DHT22;25453;48.162;14.510;2023-04-26T07:22:36;11.70;69.30
39777;DHT22;25453;48.162;14.510;2023-04-26T07:25:04;11.70;69.10
39777;DHT22;25453;48.162;14.510;2023-04-26T07:27:32;11.70;69.10
39777;DHT22;25453;48.162;14.510;2023-04-26T07:29:59;11.70;69.10
39777;DHT22;25453;48.162;14.510;2023-04-26T07:32:26;11.80;69.00
39777;DHT22;25453;48.162;14.510;2023-04-26T07:34:54;11.80;68.90
39777;DHT22;25453;48.162;14.510;2023-04-26T07:37:21;11.80;68.50
39777;DHT22;25453;48.162;14.510;2023-04-26T07:39:48;11.80;68.70
39777;DHT22;25453;48.162;14.510;2023-04-26T07:42:15;11.80;68.70
39777;DHT22;25453;48.162;14.510;2023-04-26T07:44:42;11.90;68.40
39777;DHT22;25453;48.162;14.510;2023-04-26T07:47:13;11.90;68.40
39777;DHT22;25453;48.162;14.510;2023-04-26T07:49:40;11.90;68.30
39777;DHT22;25453;48.162;14.510;2023-04-26T07:52:10;12.00;68.10
39777;DHT22;25453;48.162;14.510;2023-04-26T07:54:38;12.00;68.10
39777;DHT22;25453;48.162;14.510;2023-04-26T07:57:07;12.10;67.80
39777;DHT22;25453;48.162;14.510;2023-04-26T07:59:34;12.10;67.50
39777;DHT22;25453;48.162;14.510;2023-04-26T08:02:01;12.20;67.20
39777;DHT22;25453;48.162;14.510;2023-04-26T08:04:30;12.20;66.90
39777;DHT22;25453;48.162;14.510;2023-04-26T08:07:01;12.30;66.90
39777;DHT22;25453;48.162;14.510;2023-04-26T08:09:29;12.40;66.70
39777;DHT22;25453;48.162;14.510;2023-04-26T08:11:57;12.40;66.30
39777;DHT22;25453;48.162;14.510;2023-04-26T08:14:24;12.40;65.20
39777;DHT22;25453;48.162;14.510;2023-04-26T08:16:52;12.40;65.30
39777;DHT22;25453;48.162;14.510;2023-04-26T08:19:20;12.30;65.10
39777;DHT22;25453;48.162;14.510;2023-04-26T08:21:48;12.40;64.60
39777;DHT22;25453;48.162;14.510;2023-04-26T08:24:15;12.40;64.40
39777;DHT22;25453;48.162;14.510;2023-04-26T08:26:43;12.40;64.10
39777;DHT22;25453;48.162;14.510;2023-04-26T08:29:10;12.40;64.00
39777;DHT22;25453;48.162;14.510;2023-04-26T08:31:42;12.40;63.80
39777;DHT22;25453;48.162;14.510;2023-04-26T08:34:13;12.40;63.50
39777;DHT22;25453;48.162;14.510;2023-04-26T08:36:40;12.40;63.50
39777;DHT22;25453;48.162;14.510;2023-04-26T08:39:08;12.50;63.70
39777;DHT22;25453;48.162;14.510;2023-04-26T08:41:36;12.60;63.90
39777;DHT22;25453;48.162;14.510;2023-04-26T08:44:04;12.70;63.70
39777;DHT22;25453;48.162;14.510;2023-04-26T08:46:46;12.80;63.30
39777;DHT22;25453;48.162;14.510;2023-04-26T08:51:43;13.00;62.40
39777;DHT22;25453;48.162;14.510;2023-04-26T08:54:11;13.20;61.90
39777;DHT22;25453;48.162;14.510;2023-04-26T08:56:38;13.20;61.40
39777;DHT22;25453;48.162;14.510;2023-04-26T08:59:10;13.20;60.70
39777;DHT22;25453;48.162;14.510;2023-04-26T09:01:40;13.20;60.00
39777;DHT22;25453;48.162;14.510;2023-04-26T09:04:10;13.10;60.20
39777;DHT22;25453;48.162;14.510;2023-04-26T09:06:39;13.00;59.60
39777;DHT22;25453;48.162;14.510;2023-04-26T09:09:07;13.00;59.50
39777;DHT22;25453;48.162;14.510;2023-04-26T09:11:54;13.00;59.10
39777;DHT22;25453;48.162;14.510;2023-04-26T09:14:22;13.00;58.90
39777;DHT22;25453;48.162;14.510;2023-04-26T09:16:51;13.00;58.60
39777;DHT22;25453;48.162;14.510;2023-04-26T09:19:33;13.00;58.60
39777;DHT22;25453;48.162;14.510;2023-04-26T09:22:01;13.00;57.80
39777;DHT22;25453;48.162;14.510;2023-04-26T09:24:44;12.90;57.30
39777;DHT22;25453;48.162;14.510;2023-04-26T09:27:13;12.90;57.20
39777;DHT22;25453;48.162;14.510;2023-04-26T09:29:55;12.90;56.70
39777;DHT22;25453;48.162;14.510;2023-04-26T09:32:23;12.80;56.40
39777;DHT22;25453;48.162;14.510;2023-04-26T09:34:52;12.80;56.30
39777;DHT22;25453;48.162;14.510;2023-04-26T09:37:19;12.70;56.00
39777;DHT22;25453;48.162;14.510;2023-04-26T09:39:46;12.70;55.70
39777;DHT22;25453;48.162;14.510;2023-04-26T09:42:15;12.70;55.30
39777;DHT22;25453;48.162;14.510;2023-04-26T09:44:42;12.70;55.30
39777;DHT22;25453;48.162;14.510;2023-04-26T09:47:10;12.60;55.30
39777;DHT22;25453;48.162;14.510;2023-04-26T09:52:14;12.70;55.50
39777;DHT22;25453;48.162;14.510;2023-04-26T09:54:47;12.70;55.30
39777;DHT22;25453;48.162;14.510;2023-04-26T09:57:19;12.80;55.00
39777;DHT22;25453;48.162;14.510;2023-04-26T09:59:49;12.80;54.80
39777;DHT22;25453;48.162;14.510;2023-04-26T10:02:21;12.90;54.70
39777;DHT22;25453;48.162;14.510;2023-04-26T10:04:50;12.90;54.30
39777;DHT22;25453;48.162;14.510;2023-04-26T10:07:19;12.90;54.00
39777;DHT22;25453;48.162;14.510;2023-04-26T10:09:46;12.90;53.70
39777;DHT22;25453;48.162;14.510;2023-04-26T10:12:15;12.90;53.60
39777;DHT22;25453;48.162;14.510;2023-04-26T10:14:43;12.90;53.60
39777;DHT22;25453;48.162;14.510;2023-04-26T10:17:12;12.90;53.20
39777;DHT22;25453;48.162;14.510;2023-04-26T10:19:40;12.80;52.80
39777;DHT22;25453;48.162;14.510;2023-04-26T10:22:20;12.70;52.80
39777;DHT22;25453;48.162;14.510;2023-04-26T10:24:50;12.70;52.60
39777;DHT22;25453;48.162;14.510;2023-04-26T10:30:21;12.70;52.70
39777;DHT22;25453;48.162;14.510;2023-04-26T10:35:19;12.70;52.50
39777;DHT22;25453;48.162;14.510;2023-04-26T10:40:32;12.70;52.50
39777;DHT22;25453;48.162;14.510;2023-04-26T10:43:45;12.70;52.50
39777;DHT22;25453;48.162;14.510;2023-04-26T10:45:49;12.70;52.40
39777;DHT22;25453;48.162;14.510;2023-04-26T10:48:18;12.70;52.10
39777;DHT22;25453;48.162;14.510;2023-04-26T10:55:55;12.70;51.90
39777;DHT22;25453;48.162;14.510;2023-04-26T10:58:30;12.70;52.00
39777;DHT22;25453;48.162;14.510;2023-04-26T11:01:05;12.80;51.90
39777;DHT22;25453;48.162;14.510;2023-04-26T11:03:34;12.90;51.70
39777;DHT22;25453;48.162;14.510;2023-04-26T11:06:05;13.00;51.50
39777;DHT22;25453;48.162;14.510;2023-04-26T11:08:34;13.00;51.50
39777;DHT22;25453;48.162;14.510;2023-04-26T11:13:31;13.20;51.30
39777;DHT22;25453;48.162;14.510;2023-04-26T11:16:01;13.30;50.90
39777;DHT22;25453;48.162;14.510;2023-04-26T11:18:30;13.30;50.70
39777;DHT22;25453;48.162;14.510;2023-04-26T11:20:58;13.40;51.00
39777;DHT22;25453;48.162;14.510;2023-04-26T11:23:26;13.40;51.00
39777;DHT22;25453;48.162;14.510;2023-04-26T11:26:04;13.60;50.80
39777;DHT22;25453;48.162;14.510;2023-04-26T11:28:32;13.80;50.50
39777;DHT22;25453;48.162;14.510;2023-04-26T11:31:00;13.90;50.00
39777;DHT22;25453;48.162;14.510;2023-04-26T11:33:27;14.00;49.40
39777;DHT22;25453;48.162;14.510;2023-04-26T11:35:56;14.10;49.20
39777;DHT22;25453;48.162;14.510;2023-04-26T11:38:24;14.20;48.90
39777;DHT22;25453;48.162;14.510;2023-04-26T11:40:59;14.30;49.00
39777;DHT22;25453;48.162;14.510;2023-04-26T11:45:57;14.30;48.40
39777;DHT22;25453;48.162;14.510;2023-04-26T11:48:27;14.30;48.50
39777;DHT22;25453;48.162;14.510;2023-04-26T11:50:56;14.30;48.10
39777;DHT22;25453;48.162;14.510;2023-04-26T11:53:41;14.30;48.10
39777;DHT22;25453;48.162;14.510;2023-04-26T11:56:15;14.30;47.70
39777;DHT22;25453;48.162;14.510;2023-04-26T11:58:44;14.20;47.50
39777;DHT22;25453;48.162;14.510;2023-04-26T12:01:18;14.10;47.30
39777;DHT22;25453;48.162;14.510;2023-04-26T12:03:48;14.10;47.50
39777;DHT22;25453;48.162;14.510;2023-04-26T12:06:16;14.20;47.50
39777;DHT22;25453;48.162;14.510;2023-04-26T12:08:48;14.30;47.80
39777;DHT22;25453;48.162;14.510;2023-04-26T12:11:16;14.50;47.60
39777;DHT22;25453;48.162;14.510;2023-04-26T12:13:44;14.80;47.40
39777;DHT22;25453;48.162;14.510;2023-04-26T12:16:12;15.10;47.10
39777;DHT22;25453;48.162;14.510;2023-04-26T12:18:52;15.40;46.60
39777;DHT22;25453;48.162;14.510;2023-04-26T12:21:19;15.70;46.30
39777;DHT22;25453;48.162;14.510;2023-04-26T12:23:46;15.90;45.50
39777;DHT22;25453;48.162;14.510;2023-04-26T12:26:15;16.10;45.30
39777;DHT22;25453;48.162;14.510;2023-04-26T12:28:42;16.10;44.80
39777;DHT22;25453;48.162;14.510;2023-04-26T12:31:10;16.00;44.30
39777;DHT22;25453;48.162;14.510;2023-04-26T12:33:38;15.90;44.50
39777;DHT22;25453;48.162;14.510;2023-04-26T12:36:07;15.80;44.80
39777;DHT22;25453;48.162;14.510;2023-04-26T12:38:40;15.70;44.50
39777;DHT22;25453;48.162;14.510;2023-04-26T12:41:11;15.50;44.60
39777;DHT22;25453;48.162;14.510;2023-04-26T12:43:38;15.40;45.00
39777;DHT22;25453;48.162;14.510;2023-04-26T12:46:05;15.50;45.20
39777;DHT22;25453;48.162;14.510;2023-04-26T12:48:33;15.60;45.40
39777;DHT22;25453;48.162;14.510;2023-04-26T12:51:00;15.70;45.10
39777;DHT22;25453;48.162;14.510;2023-04-26T12:53:30;15.70;45.10
39777;DHT22;25453;48.162;14.510;2023-04-26T12:55:57;15.70;44.70
39777;DHT22;25453;48.162;14.510;2023-04-26T12:58:24;15.60;44.30
39777;DHT22;25453;48.162;14.510;2023-04-26T13:00:51;15.50;44.20
39777;DHT22;25453;48.162;14.510;2023-04-26T13:03:19;15.30;44.20
39777;DHT22;25453;48.162;14.510;2023-04-26T13:05:47;15.10;44.00
39777;DHT22;25453;48.162;14.510;2023-04-26T13:08:14;14.90;44.10
39777;DHT22;25453;48.162;14.510;2023-04-26T13:10:42;14.70;44.40
39777;DHT22;25453;48.162;14.510;2023-04-26T13:13:09;14.50;44.90
39777;DHT22;25453;48.162;14.510;2023-04-26T13:15:37;14.40;45.40
39777;DHT22;25453;48.162;14.510;2023-04-26T13:18:04;14.30;45.70
39777;DHT22;25453;48.162;14.510;2023-04-26T13:20:32;14.20;46.00
39777;DHT22;25453;48.162;14.510;2023-04-26T13:22:59;14.20;46.40
39777;DHT22;25453;48.162;14.510;2023-04-26T13:25:27;14.20;47.00
39777;DHT22;25453;48.162;14.510;2023-04-26T13:27:54;14.30;47.30
39777;DHT22;25453;48.162;14.510;2023-04-26T13:30:22;14.60;47.20
39777;DHT22;25453;48.162;14.510;2023-04-26T13:32:49;14.90;47.10
39777;DHT22;25453;48.162;14.510;2023-04-26T13:35:16;15.00;46.60
39777;DHT22;25453;48.162;14.510;2023-04-26T13:37:44;15.00;46.30
39777;DHT22;25453;48.162;14.510;2023-04-26T13:40:12;15.10;46.00
39777;DHT22;25453;48.162;14.510;2023-04-26T13:42:39;15.10;45.90
39777;DHT22;25453;48.162;14.510;2023-04-26T13:45:07;15.10;45.70
39777;DHT22;25453;48.162;14.510;2023-04-26T13:47:37;15.20;45.40
39777;DHT22;25453;48.162;14.510;2023-04-26T13:50:05;15.20;45.20
39777;DHT22;25453;48.162;14.510;2023-04-26T13:52:33;15.20;45.20
39777;DHT22;25453;48.162;14.510;2023-04-26T13:55:00;15.20;45.30
39777;DHT22;25453;48.162;14.510;2023-04-26T13:57:29;15.30;45.50
39777;DHT22;25453;48.162;14.510;2023-04-26T13:59:56;15.30;45.30
39777;DHT22;25453;48.162;14.510;2023-04-26T14:02:23;15.30;45.30
39777;DHT22;25453;48.162;14.510;2023-04-26T14:04:51;15.40;45.50
39777;DHT22;25453;48.162;14.510;2023-04-26T14:07:19;15.40;45.50
39777;DHT22;25453;48.162;14.510;2023-04-26T14:09:46;15.50;45.20
39777;DHT22;25453;48.162;14.510;2023-04-26T14:12:14;15.50;44.50
39777;DHT22;25453;48.162;14.510;2023-04-26T14:14:42;15.40;44.30
39777;DHT22;25453;48.162;14.510;2023-04-26T14:17:09;15.30;44.10
39777;DHT22;25453;48.162;14.510;2023-04-26T14:19:38;15.30;44.10
39777;DHT22;25453;48.162;14.510;2023-04-26T14:22:07;15.40;44.40
39777;DHT22;25453;48.162;14.510;2023-04-26T14:24:39;15.40;44.30
39777;DHT22;25453;48.162;14.510;2023-04-26T14:27:08;15.50;44.30
39777;DHT22;25453;48.162;14.510;2023-04-26T14:29:36;15.60;44.10
39777;DHT22;25453;48.162;14.510;2023-04-26T14:32:03;15.60;43.90
39777;DHT22;25453;48.162;14.510;2023-04-26T14:34:32;15.80;44.10
39777;DHT22;25453;48.162;14.510;2023-04-26T14:37:00;15.90;44.00
39777;DHT22;25453;48.162;14.510;2023-04-26T14:39:28;16.00;43.60
39777;DHT22;25453;48.162;14.510;2023-04-26T14:41:55;15.90;43.20
39777;DHT22;25453;48.162;14.510;2023-04-26T14:44:23;15.90;43.00
39777;DHT22;25453;48.162;14.510;2023-04-26T14:46:51;15.70;42.90
39777;DHT22;25453;48.162;14.510;2023-04-26T14:49:19;15.60;42.90
39777;DHT22;25453;48.162;14.510;2023-04-26T14:51:46;15.40;43.00
39777;DHT22;25453;48.162;14.510;2023-04-26T14:54:14;15.40;43.30
39777;DHT22;25453;48.162;14.510;2023-04-26T14:56:42;15.40;43.80
39777;DHT22;25453;48.162;14.510;2023-04-26T14:59:09;15.40;43.60
39777;DHT22;25453;48.162;14.510;2023-04-26T15:01:37;15.40;43.40
39777;DHT22;25453;48.162;14.510;2023-04-26T15:04:04;15.30;43.40
39777;DHT22;25453;48.162;14.510;2023-04-26T15:06:32;15.20;43.60
39777;DHT22;25453;48.162;14.510;2023-04-26T15:09:00;15.20;43.70
39777;DHT22;25453;48.162;14.510;2023-04-26T15:11:27;15.10;44.00
39777;DHT22;25453;48.162;14.510;2023-04-26T15:13:54;15.10;44.30
39777;DHT22;25453;48.162;14.510;2023-04-26T15:16:21;15.10;44.40
39777;DHT22;25453;48.162;14.510;2023-04-26T15:18:49;15.10;44.30
39777;DHT22;25453;48.162;14.510;2023-04-26T15:21:17;15.10;44.50
39777;DHT22;25453;48.162;14.510;2023-04-26T15:23:44;15.20;44.70
39777;DHT22;25453;48.162;14.510;2023-04-26T15:26:11;15.20;44.60
39777;DHT22;25453;48.162;14.510;2023-04-26T15:28:39;15.20;44.20
39777;DHT22;25453;48.162;14.510;2023-04-26T15:31:07;15.20;43.90
39777;DHT22;25453;48.162;14.510;2023-04-26T15:33:35;15.20;43.40
39777;DHT22;25453;48.162;14.510;2023-04-26T15:36:03;15.10;43.20
39777;DHT22;25453;48.162;14.510;2023-04-26T15:38:32;15.00;43.30
39777;DHT22;25453;48.162;14.510;2023-04-26T15:40:59;14.90;43.30
39777;DHT22;25453;48.162;14.510;2023-04-26T15:43:27;14.90;43.50
39777;DHT22;25453;48.162;14.510;2023-04-26T15:45:54;15.00;43.40